This is the latest recevied weather packets stored in our database for station/object KGRR-WX. If no packets are shown the sender has not sent any weather packets the latest 10 day(s).
| Time | Temp. | Humidity | Pressure | Rain* | Wind** | Luminosity | Snow |
|---|---|---|---|---|---|---|---|
| 1777848306 | 13.89° C | 52% | 981.4 hPa | 0 mm | - | - | - |
| 1777847422 | 13.89° C | 52% | 981.5 hPa | 0 mm | - | - | - |
| 1777846505 | 13.89° C | 52% | 981.5 hPa | 0 mm | - | - | - |
| 1777845624 | 13.33° C | 52% | 981.5 hPa | 0 mm | - | - | - |
| 1777844706 | 13.33° C | 52% | 981.8 hPa | 0 mm | - | - | - |
| 1777843821 | 13.33° C | 54% | 981.6 hPa | 0 mm | - | - | - |
| 1777842905 | 13.33° C | 54% | 981.7 hPa | 0 mm | - | - | - |
| 1777842023 | 13.33° C | 54% | 981.7 hPa | 0 mm | - | - | - |
| 1777841105 | 13.33° C | 52% | 982.6 hPa | 0 mm | - | - | - |
| 1777840221 | 13.89° C | 53% | 982.3 hPa | 0 mm | - | - | - |
| 1777839305 | 14.44° C | 53% | 982.3 hPa | 0 mm | - | - | - |
| 1777838425 | 13.89° C | 53% | 982.3 hPa | 0 mm | - | - | - |
| 1777837505 | 13.89° C | 51% | 982.8 hPa | 0 mm | - | - | - |
| 1777836622 | 14.44° C | 51% | 982.8 hPa | 0 mm | - | - | - |
| 1777835706 | 14.44° C | 51% | 982.8 hPa | 0 mm | - | - | - |
| 1777834825 | 14.44° C | 51% | 982.8 hPa | 0 mm | - | - | - |
| 1777833905 | 14.44° C | 43% | 983.6 hPa | 0 mm | - | - | - |
| 1777832106 | 15° C | 48% | 983.8 hPa | 0 mm | - | - | - |
| 1777831218 | 15° C | 48% | 983.8 hPa | 0 mm | - | - | - |
| 1777830305 | 15° C | 46% | 984.3 hPa | 0 mm | - | - | - |
| 1777829414 | 15° C | 45% | 983.6 hPa | 0 mm | - | - | - |
| 1777827619 | 14.44° C | 45% | 983.6 hPa | 0 mm | - | - | - |
| 1777826705 | 14.44° C | 45% | 984.1 hPa | 0 mm | - | - | - |
| 1777825815 | 12.78° C | 51% | 983 hPa | 0 mm | - | - | - |
| 1777824905 | 12.78° C | 51% | 983 hPa | 0 mm | - | - | - |
* Rain latest hour (hover to see other rain measurements)
** Current wind speed in m/s (hover to see current wind gust speed)